Time;durP1;ratioP1;P1;durP2;ratioP2;P2;SDS_P1;SDS_P2;PMS_P1;PMS_P2;Temp;Humidity;BMP_temperature;BMP_pressure;BME280_temperature;BME280_humidity;BME280_pressure;Samples;Min_cycle;Max_cycle;Signal;HPM_P1;HPM_P2
2023/01/17 00:00:11;;;;;;;19.27;13.70;;;;;;;15.88;45.44;90633.66;5002205;28;20046;-91
2023/01/17 00:02:37;;;;;;;43.15;29.38;;;;;;;15.93;46.88;90621.06;4994734;28;20037;-91
2023/01/17 00:10:41;;;;;;;18.73;15.50;;;;;;;15.90;46.20;90625.63;5004084;28;20513;-91
2023/01/17 00:13:06;;;;;;;27.77;18.50;;;;;;;15.95;46.48;90632.13;4987998;28;20073;-92
2023/01/17 00:15:32;;;;;;;13.95;11.05;;;;;;;15.86;45.02;90633.47;5004828;28;20041;-91
2023/01/17 00:17:58;;;;;;;13.10;9.88;;;;;;;15.84;45.00;90625.16;4989413;28;20049;-91
2023/01/17 00:26:02;;;;;;;17.52;11.27;;;;;;;15.87;45.01;90645.09;4968368;28;20045;-91
2023/01/17 01:35:03;;;;;;;28.65;21.35;;;;;;;15.94;45.95;90663.38;4957014;28;20047;-91
2023/01/17 01:37:30;;;;;;;13.23;9.48;;;;;;;15.92;45.59;90665.94;4967717;28;20035;-91
2023/01/17 01:39:55;;;;;;;15.25;12.07;;;;;;;15.91;45.55;90667.94;4993355;28;20010;-91
2023/01/17 01:42:21;;;;;;;15.43;11.68;;;;;;;15.87;45.34;90666.88;5004677;28;20030;-94
2023/01/17 01:44:50;;;;;;;15.23;10.40;;;;;;;15.89;45.44;90669.78;4994721;28;20033;-92
2023/01/17 01:47:25;;;;;;;27.15;19.17;;;;;;;15.91;45.93;90662.50;4979854;28;20046;-93
2023/01/17 01:49:51;;;;;;;20.73;14.52;;;;;;;15.90;46.43;90663.78;5010313;28;20022;-93
2023/01/17 01:52:17;;;;;;;31.33;21.15;;;;;;;15.94;46.23;90661.38;5005411;28;20088;-93
2023/01/17 01:54:50;;;;;;;11.60;8.38;;;;;;;15.87;45.07;90656.72;4999158;28;20130;-93
2023/01/17 01:57:17;;;;;;;30.30;19.83;;;;;;;15.94;46.80;90666.09;4991999;28;20041;-93
2023/01/17 01:59:55;;;;;;;22.00;14.25;;;;;;;15.92;45.56;90663.22;4991618;28;20104;-94
2023/01/17 02:02:20;;;;;;;22.95;15.10;;;;;;;15.90;45.15;90669.22;5008547;28;20037;-92
2023/01/17 02:04:45;;;;;;;23.02;14.20;;;;;;;15.91;45.49;90665.22;5007386;28;20038;-91
2023/01/17 02:07:14;;;;;;;13.35;9.52;;;;;;;15.87;45.28;90667.63;4977873;28;20053;-93
2023/01/17 02:09:39;;;;;;;27.20;18.38;;;;;;;15.93;46.09;90662.66;5006792;28;20041;-90
2023/01/17 02:12:14;;;;;;;28.58;19.55;;;;;;;15.95;46.52;90664.81;4990272;28;20049;-92
2023/01/17 02:14:39;;;;;;;32.13;22.98;;;;;;;16.02;47.00;90662.00;5001031;28;20449;-93
2023/01/17 02:17:26;;;;;;;22.83;15.52;;;;;;;15.93;46.05;90672.81;4989163;28;20041;-92
2023/01/17 02:20:26;;;;;;;35.78;23.70;;;;;;;15.98;46.75;90660.97;4999618;28;20038;-91
2023/01/17 02:23:13;;;;;;;10.73;9.00;;;;;;;15.90;45.09;90673.94;5021307;28;20041;-91
2023/01/17 02:25:54;;;;;;;20.25;14.40;;;;;;;15.90;45.71;90665.78;5021111;28;20053;-88
2023/01/17 02:28:33;;;;;;;13.52;9.25;;;;;;;15.84;45.55;90668.72;5025100;28;20061;-91
2023/01/17 02:31:04;;;;;;;26.92;18.05;;;;;;;15.91;46.86;90659.03;5010453;28;20041;-90
2023/01/17 02:33:34;;;;;;;12.65;8.55;;;;;;;15.88;45.19;90660.16;4993116;28;20054;-92
2023/01/17 02:36:24;;;;;;;13.90;10.37;;;;;;;15.88;45.31;90663.59;5011393;28;20070;-94
2023/01/17 02:39:11;;;;;;;28.77;19.23;;;;;;;15.90;45.87;90668.50;4987982;28;20634;-88
2023/01/17 02:41:42;;;;;;;13.73;9.98;;;;;;;15.87;46.12;90667.63;4999780;28;20061;-90
2023/01/17 02:44:09;;;;;;;21.13;14.30;;;;;;;15.90;45.69;90668.50;4984496;28;20037;-89
2023/01/17 02:46:51;;;;;;;37.15;22.92;;;;;;;15.95;46.77;90665.53;5001909;28;20041;-90
2023/01/17 02:49:18;;;;;;;13.52;9.50;;;;;;;15.83;45.09;90663.84;4999695;28;20038;-90
2023/01/17 02:52:13;;;;;;;11.82;8.45;;;;;;;15.83;45.17;90667.28;4982712;28;20056;-89
2023/01/17 02:54:48;;;;;;;11.57;8.82;;;;;;;15.87;45.01;90664.88;4976133;28;20049;-89
2023/01/17 02:57:36;;;;;;;15.60;11.52;;;;;;;15.89;45.43;90670.50;4959230;28;20058;-89
2023/01/17 03:00:09;;;;;;;13.90;10.25;;;;;;;15.86;45.75;90670.91;4957735;28;20050;-89
2023/01/17 03:03:10;;;;;;;10.20;8.00;;;;;;;15.83;45.25;90680.19;4976552;28;20154;-91
2023/01/17 03:05:53;;;;;;;25.08;16.00;;;;;;;15.86;45.41;90681.78;4980491;28;20058;-91
2023/01/17 03:08:19;;;;;;;23.90;15.02;;;;;;;15.92;46.19;90685.00;4961030;28;20035;-91
2023/01/17 03:10:44;;;;;;;11.00;8.13;;;;;;;15.88;45.16;90671.06;4965792;28;20049;-89
2023/01/17 03:13:09;;;;;;;8.63;7.00;;;;;;;15.84;45.08;90676.19;4961549;28;20059;-91
2023/01/17 03:15:35;;;;;;;14.40;9.73;;;;;;;15.87;45.47;90683.22;4963365;28;20049;-92
2023/01/17 03:18:03;;;;;;;10.75;8.48;;;;;;;15.90;45.04;90687.56;4947586;28;20045;-90
2023/01/17 03:20:29;;;;;;;18.30;13.10;;;;;;;15.93;45.41;90689.19;4963583;28;20042;-91
2023/01/17 03:22:54;;;;;;;12.73;8.85;;;;;;;15.90;45.28;90693.75;4963528;28;20043;-90
2023/01/17 03:25:19;;;;;;;11.82;8.00;;;;;;;15.90;45.12;90693.75;4962513;28;20046;-89
2023/01/17 03:27:45;;;;;;;23.20;16.33;;;;;;;15.96;46.46;90685.34;4981806;28;20089;-89
2023/01/17 03:30:12;;;;;;;14.82;10.70;;;;;;;15.89;44.93;90686.84;4995115;28;20084;-89
2023/01/17 03:32:38;;;;;;;29.88;20.55;;;;;;;15.94;46.71;90691.34;4962872;28;20065;-89
2023/01/17 03:35:03;;;;;;;12.23;8.95;;;;;;;15.88;46.00;90692.84;4946145;28;20038;-89
2023/01/17 03:37:29;;;;;;;30.20;20.73;;;;;;;15.92;46.05;90682.28;4944208;28;20030;-89
2023/01/17 03:39:54;;;;;;;8.68;6.53;;;;;;;15.86;45.25;90692.69;4963104;28;20734;-90
2023/01/17 03:42:21;;;;;;;26.33;20.08;;;;;;;15.94;46.69;90698.78;4961467;28;20562;-89
2023/01/17 03:44:46;;;;;;;10.70;7.40;;;;;;;15.84;45.14;90690.53;4963436;28;20065;-89
2023/01/17 03:47:11;;;;;;;14.32;8.95;;;;;;;15.82;45.31;90692.34;4950688;28;20047;-90
2023/01/17 03:49:38;;;;;;;10.82;8.02;;;;;;;15.80;45.16;90701.13;4983483;28;20038;-89
2023/01/17 03:52:04;;;;;;;13.82;9.40;;;;;;;15.80;45.62;90703.13;4950977;28;20050;-91
2023/01/17 03:54:30;;;;;;;29.92;17.45;;;;;;;15.92;46.93;90690.47;4965751;28;20122;-90
2023/01/17 03:56:56;;;;;;;10.18;7.50;;;;;;;15.86;45.07;90701.59;4965966;28;20045;-91
2023/01/17 03:59:21;;;;;;;9.38;7.45;;;;;;;15.82;44.95;90703.25;4942031;28;20047;-90
2023/01/17 04:01:47;;;;;;;10.30;7.80;;;;;;;15.81;45.18;90707.25;4949317;28;20042;-89
2023/01/17 04:04:13;;;;;;;11.73;9.52;;;;;;;15.85;45.53;90697.41;4950484;28;20055;-90
2023/01/17 04:06:39;;;;;;;11.32;8.13;;;;;;;15.81;45.16;90705.25;4965839;28;20098;-88
2023/01/17 04:09:05;;;;;;;10.25;8.25;;;;;;;15.81;44.97;90693.63;4981937;28;20386;-89
2023/01/17 04:11:30;;;;;;;10.02;7.88;;;;;;;15.79;44.95;90707.13;4955618;28;20505;-90
2023/01/17 04:13:56;;;;;;;10.90;7.07;;;;;;;15.82;45.40;90703.25;4950929;28;20583;-88
2023/01/17 04:16:22;;;;;;;9.32;6.78;;;;;;;15.83;44.90;90694.53;4986723;28;20034;-89
2023/01/17 04:18:47;;;;;;;29.52;19.52;;;;;;;15.90;46.04;90695.75;4993907;28;20085;-89
2023/01/17 04:21:13;;;;;;;24.08;12.70;;;;;;;15.92;45.83;90696.63;4985022;28;20041;-89
2023/01/17 04:23:38;;;;;;;17.73;12.68;;;;;;;15.88;46.14;90693.56;4969148;28;20092;-90
2023/01/17 04:26:04;;;;;;;9.60;7.68;;;;;;;15.82;44.91;90687.63;4969924;28;20134;-89
2023/01/17 04:28:30;;;;;;;26.42;16.85;;;;;;;15.87;45.74;90694.84;4987744;28;20227;-90
2023/01/17 04:30:58;;;;;;;9.80;7.03;;;;;;;15.81;45.22;90680.75;4986064;28;20089;-89
2023/01/17 04:33:24;;;;;;;11.20;8.20;;;;;;;15.80;45.35;90684.06;4985846;28;20041;-90
2023/01/17 04:35:51;;;;;;;13.25;9.60;;;;;;;15.79;45.62;90685.31;4986219;28;20042;-89
2023/01/17 04:38:17;;;;;;;9.55;6.97;;;;;;;15.76;45.10;90693.34;4981956;28;20173;-91
2023/01/17 04:40:48;;;;;;;10.07;6.82;;;;;;;15.75;45.34;90694.63;4986014;28;20038;-89
2023/01/17 04:43:14;;;;;;;9.73;6.85;;;;;;;15.80;45.05;90706.56;4983580;28;20038;-90
2023/01/17 04:45:40;;;;;;;8.68;6.93;;;;;;;15.79;44.95;90705.13;4986779;28;20037;-90
2023/01/17 04:48:06;;;;;;;9.63;7.32;;;;;;;15.79;45.22;90707.84;5003105;28;20488;-89
2023/01/17 04:50:32;;;;;;;10.90;7.50;;;;;;;15.78;45.12;90709.13;4987922;28;20483;-89
2023/01/17 04:52:59;;;;;;;9.25;6.63;;;;;;;15.80;45.03;90711.28;4989195;28;20041;-89
2023/01/17 04:55:24;;;;;;;11.60;8.63;;;;;;;15.77;45.12;90699.50;4990246;28;20053;-89
2023/01/17 04:57:56;;;;;;;13.20;8.95;;;;;;;15.78;45.43;90695.50;5009514;28;20026;-91
2023/01/17 05:00:21;;;;;;;27.33;18.48;;;;;;;15.89;46.54;90708.63;4993580;28;20037;-92
2023/01/17 05:02:47;;;;;;;10.65;8.98;;;;;;;15.87;45.74;90702.31;5001452;28;20130;-91
2023/01/17 05:05:13;;;;;;;10.95;8.45;;;;;;;15.81;45.23;90701.81;5009627;28;20698;-91
2023/01/17 05:07:38;;;;;;;10.45;6.68;;;;;;;15.75;45.14;90716.41;4991211;28;20041;-91
2023/01/17 05:10:04;;;;;;;11.77;6.60;;;;;;;15.80;45.33;90703.13;5001905;28;20046;-91
2023/01/17 05:12:31;;;;;;;21.08;14.07;;;;;;;15.91;46.25;90711.53;4984286;28;20040;-89
2023/01/17 05:14:57;;;;;;;26.63;18.73;;;;;;;15.93;46.63;90713.69;4972086;28;20033;-88
2023/01/17 05:17:23;;;;;;;22.13;14.70;;;;;;;15.91;45.44;90711.53;5005163;28;20046;-89
2023/01/17 05:19:48;;;;;;;19.40;13.65;;;;;;;15.92;44.96;90718.41;4999165;28;20037;-89
2023/01/17 05:22:15;;;;;;;46.53;32.38;;;;;;;15.97;45.83;90727.66;4974479;28;20405;-90
2023/01/17 05:24:44;;;;;;;14.65;8.25;;;;;;;15.84;44.96;90727.94;4975758;28;20050;-91
2023/01/17 05:27:10;;;;;;;16.90;12.05;;;;;;;15.91;45.89;90741.50;4975384;28;20042;-90
2023/01/17 05:29:35;;;;;;;19.15;13.30;;;;;;;15.93;45.88;90738.22;4992590;28;20064;-89
2023/01/17 05:32:01;;;;;;;27.08;17.58;;;;;;;15.98;46.16;90729.81;4979157;28;20409;-90
2023/01/17 05:34:27;;;;;;;11.65;9.32;;;;;;;15.93;45.37;90717.13;4986707;28;20063;-90
2023/01/17 05:36:53;;;;;;;14.00;9.75;;;;;;;16.13;45.40;90736.38;4981887;28;20045;-89
2023/01/17 05:39:18;;;;;;;13.05;8.02;;;;;;;16.11;44.66;90743.13;4994047;28;20053;-89
2023/01/17 05:41:44;;;;;;;17.35;11.18;;;;;;;16.22;45.00;90743.94;4995012;28;20038;-87
2023/01/17 05:44:09;;;;;;;15.90;11.45;;;;;;;16.21;44.77;90726.84;5012412;28;20066;-88
2023/01/17 05:46:35;;;;;;;17.58;11.18;;;;;;;16.27;45.44;90746.41;4969154;28;20046;-89
2023/01/17 05:49:00;;;;;;;14.98;10.98;;;;;;;16.15;44.58;90747.44;5009016;28;20060;-89
2023/01/17 05:51:28;;;;;;;22.88;12.77;;;;;;;16.10;44.79;90741.66;4976562;28;20042;-91
2023/01/17 05:53:55;;;;;;;26.98;13.65;;;;;;;16.11;44.49;90743.13;4958197;28;20580;-88
2023/01/17 05:56:20;;;;;;;27.08;11.98;;;;;;;16.10;44.77;90744.41;4977107;28;20057;-89
2023/01/17 05:58:46;;;;;;;22.92;9.88;;;;;;;15.88;42.10;90750.06;5017197;28;20053;-90
2023/01/17 06:01:11;;;;;;;20.45;8.10;;;;;;;15.78;41.20;90755.41;4994784;28;20054;-90
2023/01/17 06:03:37;;;;;;;39.35;18.73;;;;;;;15.89;42.51;90754.22;4997944;28;20046;-89
2023/01/17 06:06:02;;;;;;;36.38;18.08;;;;;;;15.77;41.06;90762.16;4994055;28;20038;-89
2023/01/17 06:08:28;;;;;;;60.38;24.23;;;;;;;15.85;42.47;90762.78;4983380;28;20045;-88
2023/01/17 06:10:53;;;;;;;52.67;16.23;;;;;;;15.81;43.08;90767.19;4983876;28;20037;-89
2023/01/17 06:13:22;;;;;;;45.85;14.13;;;;;;;15.81;43.66;90756.28;4990777;28;20037;-89
2023/01/17 06:15:48;;;;;;;57.67;21.10;;;;;;;15.85;44.07;90743.72;4977853;28;20034;-88
2023/01/17 06:18:15;;;;;;;35.63;14.55;;;;;;;15.80;44.23;90769.22;4981459;28;20439;-91
2023/01/17 06:20:40;;;;;;;40.42;12.57;;;;;;;15.76;42.89;90768.88;4962194;28;20512;-89
2023/01/17 06:23:09;;;;;;;58.17;18.20;;;;;;;15.77;43.31;90779.22;4957506;28;20065;-91
2023/01/17 06:25:38;;;;;;;47.67;15.35;;;;;;;15.77;42.40;90768.31;4976421;28;20069;-91
2023/01/17 06:28:05;;;;;;;45.80;14.52;;;;;;;15.75;42.61;90768.16;4979185;28;20496;-89
2023/01/17 06:30:30;;;;;;;72.45;29.27;;;;;;;15.80;42.73;90766.47;4997121;28;20132;-88
2023/01/17 06:32:56;;;;;;;145.00;29.42;;;;;;;15.69;41.05;90762.19;4992266;28;20045;-89
2023/01/17 06:35:22;;;;;;;138.27;26.75;;;;;;;15.74;41.84;90769.44;4975553;28;20104;-89
2023/01/17 06:37:51;;;;;;;118.82;21.83;;;;;;;15.80;41.99;90773.94;4992668;28;20571;-88
2023/01/17 06:40:18;;;;;;;110.30;24.40;;;;;;;15.86;42.85;90777.13;4990900;28;20050;-87
2023/01/17 06:42:43;;;;;;;73.43;23.73;;;;;;;15.88;42.57;90782.75;4964804;28;20570;-87
2023/01/17 06:45:09;;;;;;;70.57;23.95;;;;;;;15.77;40.76;90781.94;4994689;28;20041;-90
2023/01/17 06:47:40;;;;;;;46.70;18.13;;;;;;;15.64;40.00;90776.03;5000117;28;20092;-90
2023/01/17 06:50:07;;;;;;;72.07;19.55;;;;;;;15.77;39.82;90775.75;4998715;28;20069;-89
2023/01/17 06:52:34;;;;;;;63.95;22.88;;;;;;;15.73;41.01;90778.16;4998152;28;20044;-90
2023/01/17 06:54:59;;;;;;;34.47;13.88;;;;;;;15.60;38.43;90787.31;4981922;28;20030;-89
2023/01/17 06:57:25;;;;;;;31.20;13.75;;;;;;;15.38;37.32;90788.16;5006621;28;20050;-89
2023/01/17 06:59:50;;;;;;;46.20;15.93;;;;;;;15.47;38.48;90786.84;4975543;28;20053;-87
2023/01/17 07:02:15;;;;;;;66.68;16.25;;;;;;;15.54;37.49;90813.31;4987733;28;20045;-88
2023/01/17 07:04:41;;;;;;;53.60;17.27;;;;;;;15.62;38.80;90806.53;4988093;28;20999;-87
2023/01/17 07:07:06;;;;;;;55.10;22.67;;;;;;;15.70;40.40;90806.50;4966468;28;20660;-88
2023/01/17 07:09:32;;;;;;;57.67;17.83;;;;;;;15.70;40.06;90822.84;4995254;28;20748;-89
2023/01/17 07:12:00;;;;;;;62.47;17.77;;;;;;;15.75;41.93;90830.78;4982264;28;20073;-87
2023/01/17 07:14:29;;;;;;;122.15;68.63;;;;;;;15.89;42.50;90836.69;4978101;28;20046;-88
2023/01/17 07:16:55;;;;;;;55.92;16.13;;;;;;;15.93;42.46;90822.66;4974332;28;20132;-89
2023/01/17 07:19:21;;;;;;;36.58;14.65;;;;;;;16.01;42.47;90823.34;4984241;28;20045;-89
2023/01/17 07:21:51;;;;;;;36.15;17.65;;;;;;;16.02;42.42;90827.50;4997529;28;20026;-86
2023/01/17 07:24:17;;;;;;;60.40;23.05;;;;;;;16.08;43.05;90833.44;4995124;28;20120;-91
2023/01/17 07:26:42;;;;;;;42.25;16.60;;;;;;;16.03;41.63;90837.81;4999363;28;20540;-90
2023/01/17 07:29:08;;;;;;;48.20;16.42;;;;;;;16.04;41.67;90830.38;4980221;28;20048;-90
2023/01/17 07:31:35;;;;;;;39.17;14.98;;;;;;;15.99;42.61;90829.34;4993969;28;20076;-88
2023/01/17 07:34:01;;;;;;;31.10;16.88;;;;;;;15.97;42.50;90831.19;4979717;28;20393;-88
2023/01/17 07:36:26;;;;;;;34.28;13.63;;;;;;;15.85;41.53;90822.72;4975536;28;20049;-89
2023/01/17 07:38:52;;;;;;;41.58;15.05;;;;;;;15.90;41.61;90810.88;4994582;28;20476;-89
2023/01/17 07:41:17;;;;;;;73.78;19.85;;;;;;;15.93;41.73;90806.31;4968201;28;20042;-89
2023/01/17 07:43:42;;;;;;;43.78;16.83;;;;;;;15.92;41.62;90805.59;4977686;28;20077;-87
2023/01/17 07:46:08;;;;;;;40.00;16.42;;;;;;;15.98;41.91;90797.94;4978742;28;20049;-89
2023/01/17 07:48:34;;;;;;;38.20;13.50;;;;;;;15.89;41.57;90793.09;4974829;28;20065;-87
2023/01/17 07:51:00;;;;;;;37.50;14.23;;;;;;;15.89;41.70;90789.66;4991558;28;20453;-87
2023/01/17 07:53:27;;;;;;;33.00;14.32;;;;;;;15.91;42.04;90793.25;4993392;28;20037;-87
2023/01/17 07:55:53;;;;;;;35.10;17.05;;;;;;;15.87;41.81;90795.66;4991511;28;20129;-86
2023/01/17 07:58:18;;;;;;;43.10;16.38;;;;;;;15.90;42.04;90791.81;4960049;28;20434;-87
2023/01/17 08:00:45;;;;;;;33.40;15.55;;;;;;;15.93;41.90;90789.97;5009881;28;20036;-93
2023/01/17 08:03:14;;;;;;;40.00;16.45;;;;;;;15.97;41.55;90791.03;4981107;28;20133;-91
2023/01/17 08:05:42;;;;;;;33.30;15.32;;;;;;;15.96;41.79;90783.41;4980751;28;20045;-91
2023/01/17 08:08:07;;;;;;;218.50;48.47;;;;;;;15.95;42.44;90782.69;4969290;28;20042;-92
2023/01/17 08:10:33;;;;;;;93.28;25.38;;;;;;;15.94;41.94;90788.69;4982503;28;20038;-91
2023/01/17 08:12:58;;;;;;;61.22;24.80;;;;;;;15.98;42.39;90789.75;4997704;28;20068;-92
2023/01/17 08:15:25;;;;;;;54.80;18.38;;;;;;;15.94;42.10;90786.69;4993419;28;20493;-91
2023/01/17 08:17:52;;;;;;;45.42;18.20;;;;;;;15.93;42.07;90790.69;4979224;28;20045;-92
2023/01/17 08:20:22;;;;;;;56.58;20.17;;;;;;;16.00;42.28;90791.91;4978791;28;20042;-92
2023/01/17 08:22:50;;;;;;;54.90;24.25;;;;;;;16.05;42.85;90791.66;4982917;28;20141;-91
2023/01/17 08:25:16;;;;;;;35.17;15.85;;;;;;;16.00;42.12;90794.66;4961741;28;20030;-92
2023/01/17 08:27:41;;;;;;;74.28;32.85;;;;;;;16.00;42.15;90795.38;4996975;28;20444;-89
2023/01/17 08:30:07;;;;;;;110.68;57.72;;;;;;;16.09;44.38;90802.91;4976729;28;20346;-92
2023/01/17 08:32:33;;;;;;;95.25;48.05;;;;;;;16.05;42.27;90797.13;4981051;28;20056;-90
2023/01/17 08:34:58;;;;;;;63.17;31.38;;;;;;;16.04;42.00;90803.13;4977931;28;20057;-89
2023/01/17 08:37:24;;;;;;;77.60;36.00;;;;;;;16.01;41.28;90801.53;4942945;28;20038;-89
2023/01/17 08:39:49;;;;;;;77.10;36.58;;;;;;;16.03;41.45;90796.22;5001217;28;20042;-92
2023/01/17 08:42:15;;;;;;;87.38;41.25;;;;;;;16.06;41.73;90798.56;4979511;28;20046;-95
2023/01/17 08:44:45;;;;;;;87.38;41.88;;;;;;;16.06;42.47;90795.13;4990999;28;20099;-94
2023/01/17 08:47:10;;;;;;;83.75;41.55;;;;;;;16.09;42.53;90794.72;4977650;28;20117;-93
2023/01/17 08:49:37;;;;;;;97.18;49.13;;;;;;;16.20;44.67;90801.72;4974067;28;20444;-93
2023/01/17 08:52:04;;;;;;;97.50;48.80;;;;;;;16.08;41.51;90798.72;4985890;28;20073;-94
2023/01/17 08:54:29;;;;;;;103.97;52.35;;;;;;;16.14;42.71;90803.97;5006857;28;20614;-93
2023/01/17 08:56:58;;;;;;;120.55;53.38;;;;;;;16.10;42.33;90809.81;4978816;28;20045;-92
2023/01/17 08:59:24;;;;;;;147.68;71.65;;;;;;;16.18;42.67;90817.91;4982721;28;20527;-89
2023/01/17 09:01:51;;;;;;;162.20;83.25;;;;;;;16.15;43.48;90812.84;4984253;28;20165;-91
2023/01/17 09:04:21;;;;;;;295.75;160.20;;;;;;;16.16;42.57;90817.03;5000973;28;20034;-91
2023/01/17 09:06:47;;;;;;;207.82;105.72;;;;;;;16.13;42.55;90816.13;5000499;28;20067;-90
2023/01/17 09:09:15;;;;;;;239.07;126.22;;;;;;;16.13;43.04;90827.03;4990560;28;20065;-90
2023/01/17 09:11:47;;;;;;;233.68;123.07;;;;;;;16.22;42.59;90828.44;5006053;28;20404;-91
2023/01/17 09:14:14;;;;;;;296.50;178.85;;;;;;;16.20;43.35;90822.81;4982012;28;20033;-91
2023/01/17 09:19:47;;;;;;;197.65;101.82;;;;;;;16.21;42.72;90827.00;4924621;29;20518;-91
2023/01/17 09:22:12;;;;;;;284.92;149.93;;;;;;;16.19;42.37;90832.28;4891911;29;20051;-90
2023/01/17 09:24:38;;;;;;;302.50;173.77;;;;;;;16.29;43.82;90824.91;4901463;29;20745;-90
2023/01/17 09:27:04;;;;;;;335.95;201.40;;;;;;;16.24;42.28;90820.41;4901506;29;20059;-90
2023/01/17 09:29:31;;;;;;;332.85;183.75;;;;;;;16.24;42.99;90823.84;4901241;29;20040;-91
2023/01/17 09:31:57;;;;;;;179.85;84.07;;;;;;;16.18;40.91;90828.81;4907548;29;20047;-91
2023/01/17 09:34:24;;;;;;;202.77;101.65;;;;;;;16.21;42.59;90824.25;4922356;29;20068;-95
2023/01/17 09:36:55;;;;;;;220.60;115.47;;;;;;;16.23;43.33;90822.41;4927482;29;20182;-92
2023/01/17 09:39:21;;;;;;;199.75;106.38;;;;;;;16.20;41.87;90814.63;4893997;29;20043;-93
2023/01/17 09:42:28;;;;;;;217.38;112.55;;;;;;;16.24;42.21;90806.78;4908903;29;20498;-92
2023/01/17 09:44:54;;;;;;;204.63;107.93;;;;;;;16.23;42.02;90805.34;4928753;29;20120;-92
2023/01/17 09:47:41;;;;;;;194.60;105.13;;;;;;;16.30;44.18;90799.81;4924304;29;20043;-91
2023/01/17 09:50:30;;;;;;;185.57;97.03;;;;;;;16.25;42.09;90800.03;4933241;29;20567;-90
2023/01/17 09:53:02;;;;;;;197.77;99.07;;;;;;;16.26;42.55;90793.31;4956095;29;20115;-90
2023/01/17 09:55:33;;;;;;;176.80;94.07;;;;;;;16.28;42.30;90793.47;4915117;29;20063;-89
2023/01/17 09:58:06;;;;;;;169.68;91.07;;;;;;;16.23;42.21;90791.72;4997148;28;20057;-92
2023/01/17 10:00:45;;;;;;;166.80;88.93;;;;;;;16.34;43.23;90780.31;4983664;28;20033;-91
2023/01/17 10:05:47;;;;;;;171.95;85.93;;;;;;;16.28;42.59;90755.31;5028841;22;20038;-93
2023/01/17 10:08:21;;;;;;;169.90;83.28;;;;;;;16.26;42.51;90764.03;4983282;28;20041;-93
2023/01/17 10:10:56;;;;;;;156.10;81.82;;;;;;;16.27;42.46;90751.84;5034142;22;20067;-92
2023/01/17 10:13:49;;;;;;;147.88;80.95;;;;;;;16.34;42.63;90755.78;5012600;28;20097;-93
2023/01/17 10:16:30;;;;;;;151.57;78.38;;;;;;;16.30;42.78;90748.00;5024644;28;20568;-91
2023/01/17 10:19:03;;;;;;;127.63;74.53;;;;;;;16.28;42.74;90736.22;5005101;28;20034;-92
2023/01/17 10:22:01;;;;;;;141.88;76.50;;;;;;;16.29;43.22;90734.94;4995193;28;20038;-90
2023/01/17 10:24:44;;;;;;;162.90;78.00;;;;;;;16.37;44.29;90733.59;5008921;28;20041;-92
2023/01/17 10:27:20;;;;;;;140.13;72.35;;;;;;;16.36;44.30;90734.16;5001138;28;20045;-93
2023/01/17 10:29:47;;;;;;;136.25;70.97;;;;;;;16.29;42.95;90730.22;4988913;28;20034;-91
2023/01/17 10:32:14;;;;;;;126.22;69.38;;;;;;;16.33;42.79;90719.63;4976401;28;20080;-93
2023/01/17 10:34:56;;;;;;;130.13;68.47;;;;;;;16.36;43.88;90715.78;4999581;28;20042;-91
2023/01/17 10:37:36;;;;;;;122.68;65.28;;;;;;;16.33;43.07;90711.44;5002993;28;20042;-93
2023/01/17 10:40:12;;;;;;;138.40;66.60;;;;;;;16.40;44.25;90705.19;4966830;28;20158;-92
2023/01/17 10:42:49;;;;;;;123.13;62.70;;;;;;;16.33;43.24;90706.00;4978909;28;20042;-91
2023/01/17 10:45:24;;;;;;;137.52;63.35;;;;;;;16.37;43.48;90700.16;4965701;28;20049;-91
2023/01/17 10:47:56;;;;;;;133.55;68.22;;;;;;;16.37;44.63;90709.03;4893802;29;20040;-91
2023/01/17 10:50:25;;;;;;;130.60;63.72;;;;;;;16.39;44.24;90703.03;4882089;29;20040;-91
2023/01/17 10:53:08;;;;;;;91.70;47.28;;;;;;;16.23;41.96;90697.03;4849908;29;20045;-91
2023/01/17 10:55:50;;;;;;;111.05;50.90;;;;;;;16.23;41.12;90696.31;4865238;29;20109;-90
2023/01/17 10:58:16;;;;;;;84.63;39.92;;;;;;;16.23;39.77;90682.69;4892869;29;20049;-92
2023/01/17 11:01:02;;;;;;;212.40;53.97;;;;;;;16.28;40.60;90690.59;4855319;29;20032;-91
2023/01/17 11:03:29;;;;;;;116.90;52.03;;;;;;;16.27;41.01;90691.16;4928019;22;20085;-90
2023/01/17 11:06:17;;;;;;;148.00;61.65;;;;;;;16.31;41.75;90696.94;4976694;28;20039;-91
2023/01/17 11:08:56;;;;;;;115.80;61.08;;;;;;;16.29;42.13;90691.31;4970955;28;20055;-91
2023/01/17 11:11:30;;;;;;;134.13;65.53;;;;;;;16.29;42.59;90696.78;4969295;28;20585;-90
2023/01/17 11:13:59;;;;;;;128.65;68.40;;;;;;;16.30;42.74;90690.03;4916595;29;20066;-91
2023/01/17 11:16:28;;;;;;;123.28;64.68;;;;;;;16.27;42.51;90674.81;4940220;28;20046;-90
2023/01/17 11:19:19;;;;;;;534.90;429.00;;;;;;;16.35;43.05;90678.19;4955373;28;20048;-91
2023/01/17 11:22:08;;;;;;;194.25;122.43;;;;;;;16.43;42.92;90670.63;4955029;28;20035;-92
2023/01/17 11:24:39;;;;;;;112.68;62.65;;;;;;;16.44;42.52;90669.34;4972452;28;20710;-92
2023/01/17 11:27:32;;;;;;;100.22;56.38;;;;;;;16.48;42.83;90658.75;4958397;28;20122;-90
2023/01/17 11:30:16;;;;;;;95.57;56.28;;;;;;;16.52;43.23;90653.59;5006434;22;20026;-90
2023/01/17 11:32:52;;;;;;;89.38;51.17;;;;;;;16.45;42.29;90641.50;4994717;28;20094;-91
2023/01/17 11:35:24;;;;;;;93.55;51.88;;;;;;;16.48;42.31;90639.66;4979913;28;20505;-91
2023/01/17 11:37:57;;;;;;;100.60;51.50;;;;;;;16.49;43.82;90629.47;4986794;28;20064;-90
2023/01/17 11:40:30;;;;;;;94.72;55.08;;;;;;;16.43;42.35;90625.00;4990798;28;20088;-92
2023/01/17 11:46:31;;;;;;;86.38;49.25;;;;;;;16.45;42.63;90589.00;5250397;23;20052;-91
2023/01/17 11:48:58;;;;;;;88.65;49.83;;;;;;;16.51;44.49;90580.53;4992870;28;20045;-91
2023/01/17 11:51:32;;;;;;;87.28;48.72;;;;;;;16.44;42.99;90571.19;4994124;28;20406;-94
2023/01/17 11:54:15;;;;;;;78.85;45.20;;;;;;;16.40;44.42;90557.97;4968174;28;20038;-93
2023/01/17 11:57:01;;;;;;;82.57;52.08;;;;;;;16.48;45.44;90551.69;4968609;28;20039;-92
2023/01/17 11:59:30;;;;;;;82.13;47.35;;;;;;;16.43;43.66;90553.41;4985430;28;20038;-89
2023/01/17 12:02:20;;;;;;;126.63;46.85;;;;;;;16.35;43.31;90564.41;4979595;28;20057;-91
2023/01/17 12:05:14;;;;;;;89.53;44.22;;;;;;;16.39;42.84;90556.53;5000137;28;20042;-90
2023/01/17 12:07:53;;;;;;;110.32;54.33;;;;;;;16.35;43.11;90564.41;5001686;28;20042;-93
2023/01/17 12:10:25;;;;;;;127.93;56.00;;;;;;;16.38;42.89;90568.72;4965269;28;20086;-91
2023/01/17 12:15:54;;;;;;;190.15;61.13;;;;;;;16.38;43.04;90579.63;4994926;28;20097;-91
2023/01/17 12:18:35;;;;;;;117.40;50.83;;;;;;;16.35;42.92;90590.94;4977671;28;20035;-91
2023/01/17 12:21:16;;;;;;;124.32;50.88;;;;;;;16.37;44.05;90602.00;4987763;28;20125;-91
2023/01/17 12:23:55;;;;;;;107.32;50.63;;;;;;;16.37;43.04;90610.91;4989003;28;20400;-90
2023/01/17 12:26:39;;;;;;;121.50;55.78;;;;;;;16.40;42.99;90611.78;5008929;28;20042;-89
2023/01/17 12:29:17;;;;;;;116.53;54.38;;;;;;;16.37;43.11;90613.63;5008894;28;20042;-93
2023/01/17 12:31:45;;;;;;;122.30;54.45;;;;;;;16.37;43.37;90604.72;5020343;28;20072;-95
2023/01/17 12:34:29;;;;;;;107.65;51.22;;;;;;;16.40;42.92;90598.88;5004382;28;20183;-93
2023/01/17 12:37:05;;;;;;;117.00;61.85;;;;;;;16.44;44.42;90603.91;5006149;28;20033;-94
2023/01/17 12:39:39;;;;;;;165.68;68.85;;;;;;;16.39;43.17;90602.88;4991787;28;20045;-93
2023/01/17 12:42:13;;;;;;;141.88;61.72;;;;;;;16.43;43.31;90595.03;4990211;28;20165;-93
2023/01/17 12:44:50;;;;;;;131.45;59.00;;;;;;;16.43;43.11;90599.75;4986183;28;20108;-93
2023/01/17 12:47:16;;;;;;;118.55;55.45;;;;;;;16.39;42.97;90602.16;5015063;28;20048;-94
2023/01/17 12:49:44;;;;;;;125.97;57.20;;;;;;;16.53;44.98;90589.59;4973468;28;20045;-95
2023/01/17 12:52:27;;;;;;;105.50;53.55;;;;;;;16.39;43.34;90591.97;5004786;28;20038;-95
2023/01/17 12:55:20;;;;;;;104.18;54.75;;;;;;;16.42;44.20;90601.03;5017286;28;20512;-92
2023/01/17 12:57:51;;;;;;;119.68;56.05;;;;;;;16.45;43.24;90605.34;5052213;22;20090;-91
2023/01/17 13:00:25;;;;;;;112.38;54.25;;;;;;;16.40;43.47;90598.88;5003980;22;20057;-94